Time;durP1;ratioP1;P1;durP2;ratioP2;P2;SDS_P1;SDS_P2;PMS_P1;PMS_P2;Temp;Humidity;BMP_temperature;BMP_pressure;BME280_temperature;BME280_humidity;BME280_pressure;Samples;Min_cycle;Max_cycle;Signal;HPM_P1;HPM_P2
2022/05/20 00:01:43;;;;;;;5.80;1.40;;;;;;;18.77;36.53;99267.61;106154;1273;25232;-81
2022/05/20 00:04:36;;;;;;;5.70;1.70;;;;;;;18.77;36.65;99263.77;105957;1274;22843;-81
2022/05/20 00:07:39;;;;;;;;;;;;;;;;;;;;;
2022/05/20 00:10:11;;;;;;;6.60;1.40;;;;;;;18.62;36.64;99263.88;106024;1274;22544;-83
2022/05/20 00:12:59;;;;;;;6.10;1.60;;;;;;;18.56;36.72;99263.52;105948;1274;22566;-85
2022/05/20 00:15:59;;;;;;;6.30;1.30;;;;;;;18.49;36.76;99270.54;106215;1274;25206;-78
2022/05/20 00:18:33;;;;;;;5.60;1.30;;;;;;;18.45;36.65;99267.95;105945;1274;22563;-83
2022/05/20 00:21:03;;;;;;;7.00;1.80;;;;;;;18.42;36.63;99266.11;106181;1273;22541;-84
2022/05/20 00:23:53;;;;;;;8.80;1.40;;;;;;;18.39;36.74;99265.46;105947;1274;22686;-77
2022/05/20 00:26:20;;;;;;;6.40;1.30;;;;;;;18.32;36.82;99260.61;105935;1274;24363;-82
2022/05/20 00:28:56;;;;;;;6.30;1.40;;;;;;;18.26;36.84;99260.89;105818;1274;24348;-80
2022/05/20 00:31:31;;;;;;;6.90;1.20;;;;;;;18.22;36.88;99261.48;106122;1274;22689;-85
2022/05/20 00:34:08;;;;;;;6.00;1.50;;;;;;;18.17;36.90;99263.05;105950;1274;25305;-77
2022/05/20 00:36:48;;;;;;;3.40;1.20;;;;;;;18.13;36.94;99263.11;105932;1274;22553;-80
2022/05/20 00:39:18;;;;;;;4.80;1.20;;;;;;;18.09;36.99;99264.52;105828;1274;22537;-85
2022/05/20 00:41:48;;;;;;;5.30;1.00;;;;;;;18.08;37.06;99259.44;105961;1276;23779;-82
2022/05/20 00:44:18;;;;;;;5.40;1.20;;;;;;;18.07;37.09;99257.19;105983;1274;26007;-75
2022/05/20 00:46:45;;;;;;;5.20;1.20;;;;;;;18.06;37.04;99261.55;105899;1274;22741;-78
2022/05/20 00:49:36;;;;;;;4.90;1.30;;;;;;;18.04;37.08;99259.38;105954;1274;22672;-86
2022/05/20 00:52:04;;;;;;;5.50;1.10;;;;;;;18.03;37.15;99255.23;106152;1273;22561;-85
2022/05/20 00:54:37;;;;;;;5.40;1.30;;;;;;;18.03;37.19;99254.38;106144;1274;25354;-85
2022/05/20 00:57:14;;;;;;;5.00;1.20;;;;;;;18.01;37.21;99255.80;105955;1274;22541;-79
2022/05/20 00:59:47;;;;;;;4.40;1.40;;;;;;;18.01;37.21;99256.72;105855;1274;22550;-81
2022/05/20 01:02:20;;;;;;;5.70;1.20;;;;;;;18.00;37.29;99255.33;105926;1273;25287;-82
2022/05/20 01:04:48;;;;;;;3.00;0.90;;;;;;;18.00;37.42;99255.30;106004;1274;25241;-76
2022/05/20 01:07:18;;;;;;;6.30;1.20;;;;;;;18.02;37.40;99254.82;106080;1274;22632;-79
2022/05/20 01:09:46;;;;;;;3.80;1.10;;;;;;;18.04;37.38;99258.75;105938;1274;23231;-76
2022/05/20 01:12:16;;;;;;;4.80;1.00;;;;;;;18.05;37.45;99253.01;105845;1274;22730;-77
2022/05/20 01:14:45;;;;;;;4.70;1.40;;;;;;;18.06;37.53;99249.33;105955;1274;22828;-79
2022/05/20 01:17:13;;;;;;;5.50;1.20;;;;;;;18.06;37.57;99250.22;105738;1273;22548;-77
2022/05/20 01:19:49;;;;;;;3.20;1.10;;;;;;;18.07;37.55;99252.27;105836;1274;23169;-77
2022/05/20 01:22:29;;;;;;;5.80;1.20;;;;;;;18.09;37.63;99255.29;105993;1274;26583;-76
2022/05/20 01:24:56;;;;;;;5.40;1.20;;;;;;;18.11;37.58;99260.20;105937;1274;22568;-76
2022/05/20 01:27:26;;;;;;;4.00;1.20;;;;;;;18.13;37.56;99266.02;105973;1274;22556;-80
2022/05/20 01:29:54;;;;;;;8.00;1.30;;;;;;;18.17;37.65;99267.55;105892;1274;24182;-80
2022/05/20 01:32:22;;;;;;;4.90;1.30;;;;;;;18.25;37.67;99270.65;105852;1274;23958;-77
2022/05/20 01:34:49;;;;;;;7.00;1.30;;;;;;;18.33;37.68;99277.99;105881;1274;22699;-78
2022/05/20 01:37:17;;;;;;;4.20;1.20;;;;;;;18.36;37.68;99282.04;105911;1273;26434;-77
2022/05/20 01:39:52;;;;;;;6.00;1.20;;;;;;;18.38;37.67;99283.44;105795;1274;24281;-76
2022/05/20 01:42:30;;;;;;;5.90;1.40;;;;;;;18.40;37.66;99285.09;105946;1273;22622;-78
2022/05/20 01:45:24;;;;;;;8.20;1.40;;;;;;;18.42;37.74;99288.95;105666;1274;22601;-77
2022/05/20 01:48:29;;;;;;;7.80;1.50;;;;;;;18.47;37.73;99293.36;105725;1274;22771;-84
2022/05/20 01:50:57;;;;;;;7.00;1.40;;;;;;;18.52;37.71;99297.88;105962;1274;22569;-78
2022/05/20 01:53:38;;;;;;;8.90;1.40;;;;;;;18.54;37.67;99296.06;105907;1274;22937;-77
2022/05/20 01:56:31;;;;;;;6.10;1.30;;;;;;;18.56;37.74;99298.16;105952;1274;22848;-83
2022/05/20 01:59:17;;;;;;;5.20;1.00;;;;;;;18.57;37.67;99296.48;105964;1274;22547;-80
2022/05/20 02:02:17;;;;;;;5.30;1.20;;;;;;;18.56;37.75;99302.70;105846;1274;22560;-80
2022/05/20 02:04:49;;;;;;;6.30;1.20;;;;;;;18.53;37.69;99304.92;105868;1274;22727;-80
2022/05/20 02:07:30;;;;;;;6.80;1.20;;;;;;;18.52;37.75;99302.72;105614;1274;22656;-77
2022/05/20 02:10:10;;;;;;;4.80;1.30;;;;;;;18.51;37.75;99306.48;105862;1273;24204;-80
2022/05/20 02:12:50;;;;;;;7.70;1.10;;;;;;;18.50;37.77;99311.46;105985;1274;25300;-76
2022/05/20 02:15:31;;;;;;;3.70;1.10;;;;;;;18.49;37.85;99314.23;105952;1274;22554;-77
2022/05/20 02:18:02;;;;;;;5.20;1.20;;;;;;;18.49;37.79;99317.67;105718;1274;22701;-78
2022/05/20 02:20:43;;;;;;;5.20;1.10;;;;;;;18.46;37.88;99319.55;105885;1274;22606;-81
2022/05/20 02:23:35;;;;;;;5.70;1.30;;;;;;;18.44;37.89;99320.73;105978;1274;22547;-91
2022/05/20 02:26:07;;;;;;;7.10;1.30;;;;;;;18.44;37.83;99321.01;106064;1274;22574;-82
2022/05/20 02:28:41;;;;;;;7.60;1.30;;;;;;;18.44;37.80;99322.69;106094;1274;24193;-84
2022/05/20 02:31:15;;;;;;;3.90;1.20;;;;;;;18.41;37.78;99313.61;105995;1273;24275;-82
2022/05/20 02:33:45;;;;;;;7.30;1.20;;;;;;;18.37;37.89;99317.57;105774;1274;24223;-84
2022/05/20 02:36:25;;;;;;;5.10;1.00;;;;;;;18.33;37.79;99315.46;106087;1274;24213;-85
2022/05/20 02:38:52;;;;;;;5.70;1.20;;;;;;;18.29;37.84;99318.70;106208;1274;22684;-84
2022/05/20 02:41:37;;;;;;;9.90;1.40;;;;;;;18.28;37.75;99319.01;106176;1274;24241;-86
2022/05/20 02:44:04;;;;;;;6.00;1.30;;;;;;;18.27;37.86;99325.62;106297;1273;22556;-85
2022/05/20 02:46:32;;;;;;;7.50;1.10;;;;;;;18.26;37.80;99328.81;106226;1273;22540;-86
2022/05/20 02:49:01;;;;;;;6.10;1.30;;;;;;;18.23;37.82;99324.21;106075;1274;25238;-86
2022/05/20 02:51:41;;;;;;;6.40;1.10;;;;;;;18.20;37.88;99328.65;106017;1273;22826;-86
2022/05/20 02:54:21;;;;;;;4.60;1.00;;;;;;;18.17;37.86;99326.62;106055;1274;25421;-85
2022/05/20 02:56:48;;;;;;;5.70;1.10;;;;;;;18.14;37.96;99325.48;106224;1273;25327;-81
2022/05/20 03:04:47;;;;;;;7.50;1.30;;;;;;;18.04;38.05;99323.02;105956;1276;25228;-76
2022/05/20 03:07:20;;;;;;;5.70;1.10;;;;;;;18.03;38.14;99323.15;106014;1274;25235;-80
2022/05/20 03:09:52;;;;;;;9.80;1.50;;;;;;;18.02;38.14;99322.03;105914;1274;22740;-78
2022/05/20 03:12:28;;;;;;;5.30;1.20;;;;;;;18.00;38.17;99321.99;106238;1273;22571;-80
2022/05/20 03:14:55;;;;;;;4.50;1.20;;;;;;;17.98;38.29;99316.27;106169;1274;25378;-79
2022/05/20 03:17:22;;;;;;;7.40;1.30;;;;;;;17.97;38.23;99324.33;106210;1273;22544;-82
2022/05/20 03:20:10;;;;;;;5.10;1.00;;;;;;;17.95;38.37;99318.36;105901;1274;22544;-77
2022/05/20 03:22:37;;;;;;;6.30;1.30;;;;;;;17.92;38.46;99319.37;106166;1274;25420;-77
2022/05/20 03:25:07;;;;;;;4.70;1.10;;;;;;;17.90;38.45;99321.21;106207;1273;22732;-82
2022/05/20 03:27:37;;;;;;;4.40;1.00;;;;;;;17.90;38.47;99324.45;105973;1274;22550;-85
2022/05/20 03:30:06;;;;;;;8.30;1.30;;;;;;;17.89;38.47;99321.67;105909;1274;25397;-78
2022/05/20 03:32:42;;;;;;;6.70;1.20;;;;;;;17.89;38.60;99322.42;106383;1273;22553;-85
2022/05/20 03:35:15;;;;;;;6.60;1.20;;;;;;;17.87;38.66;99319.69;106163;1273;22713;-78
2022/05/20 03:37:45;;;;;;;3.80;1.10;;;;;;;17.84;38.74;99315.70;105961;1274;25298;-86
2022/05/20 03:40:15;;;;;;;8.40;1.10;;;;;;;17.81;38.81;99318.47;105933;1274;25197;-77
2022/05/20 03:42:45;;;;;;;6.00;1.40;;;;;;;17.78;38.89;99318.40;106219;1274;22598;-86
2022/05/20 03:45:14;;;;;;;6.30;1.20;;;;;;;17.74;39.01;99318.21;105838;1277;25504;-77
2022/05/20 03:47:54;;;;;;;7.00;1.40;;;;;;;17.72;39.05;99320.47;105933;1274;25277;-78
2022/05/20 03:50:23;;;;;;;4.30;1.10;;;;;;;17.70;39.08;99324.98;106005;1273;25354;-84
2022/05/20 03:53:21;;;;;;;4.60;1.20;;;;;;;17.69;39.09;99327.58;105974;1275;25304;-77
2022/05/20 03:56:09;;;;;;;7.60;1.50;;;;;;;17.69;39.24;99330.27;106229;1274;22560;-79
2022/05/20 03:58:39;;;;;;;7.40;1.30;;;;;;;17.69;39.31;99335.54;105894;1273;22544;-82
2022/05/20 04:02:00;;;;;;;6.20;1.10;;;;;;;17.70;39.27;99340.39;106209;1274;22557;-81
2022/05/20 04:04:33;;;;;;;7.10;1.40;;;;;;;17.74;39.26;99343.84;106185;1274;25370;-78
2022/05/20 04:07:16;;;;;;;7.00;1.20;;;;;;;17.77;39.34;99344.63;105979;1274;25336;-84
2022/05/20 04:09:45;;;;;;;5.80;1.20;;;;;;;17.80;39.40;99349.92;105988;1277;24289;-84
2022/05/20 04:13:14;;;;;;;5.60;1.10;;;;;;;17.83;39.43;99350.00;106163;1274;24204;-84
2022/05/20 04:15:47;;;;;;;7.40;1.40;;;;;;;17.86;39.47;99356.52;106435;1274;23442;-81
2022/05/20 04:18:17;;;;;;;10.50;1.40;;;;;;;17.89;39.56;99361.12;105874;1277;24358;-83
2022/05/20 04:20:44;;;;;;;4.70;1.40;;;;;;;17.91;39.67;99366.45;105843;1275;24241;-81
2022/05/20 04:23:21;;;;;;;;;;;;;;;;;;;;;
2022/05/20 04:26:02;;;;;;;8.20;1.50;;;;;;;17.98;39.70;99374.57;105928;1276;22852;-82
2022/05/20 04:28:42;;;;;;;8.30;1.60;;;;;;;18.03;39.86;99375.92;106304;1274;23133;-79
2022/05/20 04:31:10;;;;;;;7.30;1.50;;;;;;;18.07;39.86;99377.48;106200;1274;22538;-77
2022/05/20 04:33:38;;;;;;;6.60;1.30;;;;;;;18.12;39.97;99377.23;106219;1274;24409;-78
2022/05/20 04:36:07;;;;;;;7.30;1.60;;;;;;;18.17;40.06;99381.75;105879;1276;22556;-83
2022/05/20 04:38:34;;;;;;;9.80;1.80;;;;;;;18.22;40.16;99383.50;105956;1275;22725;-80
2022/05/20 04:49:33;;;;;;;6.60;1.50;;;;;;;18.51;40.75;99396.73;106171;1273;24419;-81
2022/05/20 04:52:00;;;;;;;12.80;1.60;;;;;;;18.61;40.75;99393.43;105961;1274;22558;-77
2022/05/20 04:57:32;;;;;;;12.40;1.80;;;;;;;18.80;40.94;99394.77;106012;1274;24403;-78
2022/05/20 05:00:01;;;;;;;15.50;1.90;;;;;;;18.88;40.94;99400.66;106221;1273;24411;-83
2022/05/20 05:02:29;;;;;;;12.80;1.90;;;;;;;18.95;41.14;99399.23;106348;1273;24259;-84
2022/05/20 05:04:55;;;;;;;9.90;2.00;;;;;;;19.01;41.09;99400.06;106107;1274;24896;-82
2022/05/20 05:07:22;;;;;;;11.80;1.90;;;;;;;19.06;41.31;99401.70;105859;1274;22555;-83
2022/05/20 05:09:51;;;;;;;10.20;1.90;;;;;;;19.08;41.34;99400.27;106432;1274;25804;-77
2022/05/20 05:12:19;;;;;;;11.10;1.60;;;;;;;19.08;41.39;99400.83;106041;1274;25238;-77
2022/05/20 05:14:49;;;;;;;9.00;2.00;;;;;;;19.06;41.60;99397.94;106243;1274;23934;-77
2022/05/20 05:20:22;;;;;;;10.40;1.80;;;;;;;19.00;41.75;99399.30;105870;1275;22576;-81
2022/05/20 05:22:54;;;;;;;11.90;1.80;;;;;;;19.03;42.15;99401.44;105904;1274;24200;-80
2022/05/20 05:25:26;;;;;;;9.00;1.90;;;;;;;19.24;42.10;99407.40;105867;1274;24210;-77
2022/05/20 05:27:53;;;;;;;10.90;2.00;;;;;;;19.55;42.20;99409.84;106411;1273;22539;-78
2022/05/20 05:30:22;;;;;;;11.40;1.60;;;;;;;19.86;42.15;99406.27;106015;1274;22534;-78
2022/05/20 05:32:49;;;;;;;12.90;2.10;;;;;;;20.16;42.33;99403.46;106144;1274;25485;-77
2022/05/20 05:35:20;;;;;;;14.50;2.00;;;;;;;20.42;42.18;99397.91;105818;1277;25652;-78
2022/05/20 05:37:48;;;;;;;16.30;1.90;;;;;;;20.67;42.09;99401.20;105950;1277;22538;-78
2022/05/20 05:40:19;;;;;;;14.40;1.80;;;;;;;20.90;42.09;99405.79;106515;1273;22627;-81
2022/05/20 05:42:46;;;;;;;13.80;2.00;;;;;;;21.13;42.12;99408.69;105971;1274;22595;-76
2022/05/20 05:45:16;;;;;;;15.40;1.90;;;;;;;21.36;42.38;99406.71;106288;1275;22561;-82
2022/05/20 05:47:47;;;;;;;10.10;1.80;;;;;;;21.57;42.31;99406.48;106253;1274;24360;-84
2022/05/20 05:50:14;;;;;;;10.60;1.90;;;;;;;21.79;42.32;99399.30;106277;1274;22791;-83
2022/05/20 05:52:41;;;;;;;7.30;1.90;;;;;;;22.04;42.20;99393.92;106271;1274;22550;-78
2022/05/20 05:55:08;;;;;;;13.40;2.20;;;;;;;22.22;42.18;99396.17;106750;1274;24557;-76
2022/05/20 05:57:35;;;;;;;16.50;2.50;;;;;;;22.37;42.26;99397.34;106277;1274;25199;-76
2022/05/20 06:00:04;;;;;;;12.20;1.90;;;;;;;22.52;42.23;99391.61;106212;1274;25722;-78
2022/05/20 06:02:39;;;;;;;8.70;1.90;;;;;;;22.60;42.14;99398.60;105959;1274;25673;-86
2022/05/20 06:05:09;;;;;;;7.70;1.60;;;;;;;22.70;42.15;99404.98;106498;1273;22578;-82
2022/05/20 06:07:38;;;;;;;10.50;1.90;;;;;;;22.74;42.30;99405.74;106392;1273;22866;-73
2022/05/20 06:10:05;;;;;;;8.30;2.00;;;;;;;22.80;42.43;99410.23;105877;1274;22780;-79
2022/05/20 06:12:35;;;;;;;6.10;1.60;;;;;;;22.84;42.39;99403.39;106274;1273;25241;-77
2022/05/20 06:15:13;;;;;;;5.40;1.30;;;;;;;22.91;42.36;99406.48;106285;1273;22626;-88
2022/05/20 06:17:48;;;;;;;9.00;1.40;;;;;;;22.92;42.53;99406.19;106063;1273;22822;-88
2022/05/20 06:20:16;;;;;;;6.00;1.70;;;;;;;22.90;42.65;99404.16;105630;1277;24306;-77
2022/05/20 06:22:42;;;;;;;7.10;1.50;;;;;;;22.99;42.68;99401.23;106269;1273;24301;-83
2022/05/20 06:25:11;;;;;;;5.70;1.40;;;;;;;23.01;42.49;99398.98;106257;1274;23911;-79
2022/05/20 06:27:37;;;;;;;8.50;2.00;;;;;;;23.08;42.64;99400.29;106240;1274;25468;-77
2022/05/20 06:30:09;;;;;;;5.20;1.20;;;;;;;23.10;42.74;99402.45;105981;1274;22640;-83
2022/05/20 06:32:36;;;;;;;9.00;1.70;;;;;;;23.15;42.84;99398.11;106129;1274;24299;-83
2022/05/20 06:40:45;;;;;;;5.40;1.40;;;;;;;23.40;42.93;99400.29;105846;1276;22538;-82
2022/05/20 06:43:20;;;;;;;8.70;1.70;;;;;;;23.63;43.02;99401.09;106148;1274;24313;-84
2022/05/20 06:45:56;;;;;;;8.00;2.00;;;;;;;23.70;42.89;99395.92;105787;1275;24213;-79
2022/05/20 06:48:59;;;;;;;5.50;1.70;;;;;;;23.80;43.07;99394.83;105929;1274;23926;-79
2022/05/20 06:51:29;;;;;;;5.50;1.60;;;;;;;23.96;42.81;99395.02;106000;1277;22575;-78
2022/05/20 06:54:01;;;;;;;7.30;1.60;;;;;;;23.96;42.61;99394.20;106763;1274;22600;-76
2022/05/20 06:56:39;;;;;;;5.00;1.30;;;;;;;23.92;42.80;99388.48;105872;1276;22588;-82
2022/05/20 06:59:12;;;;;;;10.30;1.50;;;;;;;23.91;43.03;99391.70;106608;1276;22550;-80
2022/05/20 07:01:42;;;;;;;3.80;1.40;;;;;;;23.84;42.86;99391.45;106774;1274;25345;-86
2022/05/20 07:04:09;;;;;;;8.60;1.50;;;;;;;23.82;42.91;99392.63;106030;1274;22547;-84
2022/05/20 07:06:36;;;;;;;7.40;1.40;;;;;;;23.87;43.16;99393.63;105918;1277;22848;-80
2022/05/20 07:09:09;;;;;;;5.50;1.20;;;;;;;23.96;43.00;99395.05;105975;1274;23176;-85
2022/05/20 07:11:36;;;;;;;6.50;1.40;;;;;;;23.89;43.11;99396.80;106038;1273;25550;-78
2022/05/20 07:14:15;;;;;;;5.20;1.70;;;;;;;23.88;43.28;99389.48;106248;1274;25238;-90
2022/05/20 07:16:43;;;;;;;4.40;1.40;;;;;;;23.95;43.18;99398.52;106144;1274;22556;-85
2022/05/20 07:19:11;;;;;;;8.30;1.70;;;;;;;24.05;43.21;99403.48;106026;1275;22557;-84
2022/05/20 07:21:38;;;;;;;4.80;1.40;;;;;;;24.14;43.39;99407.63;105945;1274;22538;-80
2022/05/20 07:24:06;;;;;;;7.50;1.50;;;;;;;24.26;43.40;99403.39;106084;1274;23904;-82
2022/05/20 07:26:34;;;;;;;7.30;1.90;;;;;;;24.36;43.30;99407.79;106075;1274;22532;-79
2022/05/20 07:29:02;;;;;;;5.30;1.40;;;;;;;24.42;43.39;99409.71;105904;1274;23949;-79
2022/05/20 07:31:29;;;;;;;6.30;1.50;;;;;;;24.60;43.34;99405.89;106018;1274;22644;-86
2022/05/20 07:33:59;;;;;;;5.80;1.50;;;;;;;24.61;43.12;99408.17;105890;1274;22529;-81
2022/05/20 07:36:27;;;;;;;8.10;1.20;;;;;;;24.75;43.36;99409.80;105934;1275;25031;-81
2022/05/20 07:39:04;;;;;;;8.20;1.30;;;;;;;24.91;43.21;99411.75;106085;1274;22629;-83
2022/05/20 07:42:07;;;;;;;6.50;1.30;;;;;;;25.05;43.26;99411.99;106197;1274;22540;-85
2022/05/20 07:44:36;;;;;;;5.60;1.30;;;;;;;25.17;42.93;99415.48;106051;1274;22659;-79
2022/05/20 07:47:08;;;;;;;3.00;1.30;;;;;;;25.03;42.99;99413.33;105912;1277;25230;-86
2022/05/20 07:49:35;;;;;;;4.30;1.20;;;;;;;25.03;43.06;99416.58;105993;1274;22880;-79
2022/05/20 07:53:19;;;;;;;4.70;1.30;;;;;;;25.11;43.01;99418.58;106232;1274;22534;-84
2022/05/20 07:55:27;;;;;;;6.50;1.20;;;;;;;25.05;43.01;99413.60;106238;1274;23835;-83
2022/05/20 07:57:57;;;;;;;5.50;1.30;;;;;;;25.08;43.05;99406.19;106006;1274;25232;-79
2022/05/20 08:00:27;;;;;;;6.30;1.30;;;;;;;25.16;43.05;99409.83;105986;1275;24218;-85
2022/05/20 08:04:52;;;;;;;5.30;1.30;;;;;;;25.32;43.33;99410.11;106235;1274;22744;-83
2022/05/20 08:05:48;;;;;;;3.50;1.10;;;;;;;25.54;43.05;99410.05;106019;1274;22563;-87
2022/05/20 08:08:18;;;;;;;3.40;1.10;;;;;;;25.53;42.71;99407.81;106251;1274;24032;-80
2022/05/20 08:10:48;;;;;;;4.40;1.10;;;;;;;25.45;42.71;99409.34;105948;1274;23884;-88
2022/05/20 08:13:21;;;;;;;3.00;1.00;;;;;;;25.38;42.82;99407.68;105882;1274;24294;-83
2022/05/20 08:16:11;;;;;;;4.60;1.30;;;;;;;25.49;43.27;99406.72;105907;1274;24746;-80
2022/05/20 08:18:41;;;;;;;4.00;1.10;;;;;;;25.76;43.17;99408.52;106258;1274;22578;-79
2022/05/20 08:21:08;;;;;;;4.50;1.00;;;;;;;25.95;43.05;99406.58;105861;1277;23233;-81
2022/05/20 08:23:55;;;;;;;4.40;1.10;;;;;;;26.19;43.16;99407.84;105976;1274;24268;-92
2022/05/20 08:26:22;;;;;;;6.10;1.10;;;;;;;26.30;42.49;99402.34;105895;1274;22814;-82
2022/05/20 08:28:49;;;;;;;5.60;1.10;;;;;;;26.25;42.69;99403.91;106137;1274;23078;-78
2022/05/20 08:31:37;;;;;;;4.80;1.10;;;;;;;26.29;43.02;99402.30;106003;1274;24283;-89
2022/05/20 08:34:04;;;;;;;4.70;1.10;;;;;;;26.40;42.74;99403.07;105854;1274;25335;-79
2022/05/20 08:36:35;;;;;;;7.90;1.20;;;;;;;26.49;42.76;99395.42;105980;1274;25539;-80
2022/05/20 08:39:27;;;;;;;3.60;1.20;;;;;;;26.54;42.55;99390.41;105989;1275;25412;-82
2022/05/20 08:42:22;;;;;;;3.60;1.10;;;;;;;26.54;42.36;99388.83;106029;1274;24198;-87
2022/05/20 08:44:49;;;;;;;4.40;1.10;;;;;;;26.51;42.41;99393.57;105980;1274;22554;-81
2022/05/20 08:47:31;;;;;;;3.00;1.00;;;;;;;26.53;42.40;99397.54;105872;1274;23106;-79
2022/05/20 08:50:00;;;;;;;2.00;0.90;;;;;;;26.39;41.87;99397.20;106085;1274;25494;-81
2022/05/20 08:52:28;;;;;;;4.40;1.20;;;;;;;26.35;42.33;99388.25;106131;1274;25293;-78
2022/05/20 08:54:55;;;;;;;3.80;1.00;;;;;;;26.46;42.43;99393.38;106205;1274;24275;-84
2022/05/20 08:57:47;;;;;;;7.00;1.10;;;;;;;26.59;42.51;99384.13;106186;1274;24236;-85
2022/05/20 09:00:18;;;;;;;4.20;1.00;;;;;;;26.68;42.10;99386.09;106007;1275;25274;-84
2022/05/20 09:02:59;;;;;;;3.40;0.90;;;;;;;26.55;41.84;99383.27;106166;1274;22555;-87
2022/05/20 09:05:36;;;;;;;5.00;1.00;;;;;;;26.45;42.18;99382.85;105910;1274;22713;-85
2022/05/20 09:08:07;;;;;;;3.80;1.10;;;;;;;26.56;42.17;99378.21;106188;1274;22561;-85
2022/05/20 09:10:47;;;;;;;4.70;1.00;;;;;;;26.77;42.37;99379.11;105923;1274;24252;-81
2022/05/20 09:15:43;;;;;;;3.50;1.00;;;;;;;26.85;41.94;99377.95;105853;1275;22548;-83
2022/05/20 09:16:20;;;;;;;6.50;1.10;;;;;;;27.07;42.46;99371.55;106060;1274;25292;-81
2022/05/20 09:19:04;;;;;;;4.10;1.00;;;;;;;27.21;41.82;99382.40;106083;1275;22802;-79
2022/05/20 09:21:53;;;;;;;3.70;1.00;;;;;;;27.12;41.98;99390.01;105883;1274;23380;-84
2022/05/20 09:24:22;;;;;;;3.20;0.80;;;;;;;27.25;41.91;99389.58;105896;1274;23904;-79
2022/05/20 09:27:06;;;;;;;5.60;0.80;;;;;;;27.51;42.52;99386.13;105972;1274;22534;-78
2022/05/20 09:29:37;;;;;;;3.30;0.80;;;;;;;27.82;42.11;99385.23;105985;1276;23948;-84
2022/05/20 09:32:06;;;;;;;4.70;1.00;;;;;;;28.09;42.34;99381.45;106000;1274;25303;-88
2022/05/20 09:34:39;;;;;;;5.20;1.20;;;;;;;28.11;41.38;99384.95;106282;1274;22616;-84
2022/05/20 09:37:18;;;;;;;17.50;1.80;;;;;;;27.96;41.89;99379.92;105948;1276;25439;-81
2022/05/20 09:39:48;;;;;;;6.10;1.10;;;;;;;28.16;42.19;99373.70;106190;1274;22628;-85
2022/05/20 09:42:27;;;;;;;4.50;0.90;;;;;;;28.36;41.83;99375.80;106255;1274;22742;-81
2022/05/20 09:44:59;;;;;;;3.40;1.10;;;;;;;28.31;42.05;99370.19;105966;1274;24507;-83
2022/05/20 09:48:04;;;;;;;3.80;0.90;;;;;;;28.38;41.60;99364.48;106193;1274;22557;-85
2022/05/20 09:50:54;;;;;;;2.60;0.80;;;;;;;28.27;41.33;99369.68;106056;1275;22596;-83
2022/05/20 09:53:42;;;;;;;4.80;1.10;;;;;;;28.05;41.14;99366.16;106243;1274;25397;-87
2022/05/20 09:56:40;;;;;;;3.80;0.90;;;;;;;27.87;41.01;99362.51;105888;1274;24412;-86
2022/05/20 09:59:38;;;;;;;3.60;1.00;;;;;;;27.74;41.16;99356.88;105911;1275;24370;-87
2022/05/20 10:02:08;;;;;;;4.10;1.10;;;;;;;27.99;41.82;99354.36;105932;1274;23182;-84
2022/05/20 10:04:54;;;;;;;3.40;0.80;;;;;;;28.33;41.92;99350.28;106179;1274;22878;-86
2022/05/20 10:07:53;;;;;;;3.60;1.20;;;;;;;28.54;41.26;99344.73;106170;1274;22609;-81
2022/05/20 10:10:48;;;;;;;3.30;0.80;;;;;;;28.73;41.38;99338.15;106123;1274;22683;-79
2022/05/20 10:13:53;;;;;;;7.60;1.20;;;;;;;28.83;41.42;99338.77;105891;1275;25398;-82
2022/05/20 10:16:43;;;;;;;4.70;1.10;;;;;;;28.86;40.96;99334.14;105694;1281;22743;-82
2022/05/20 10:19:23;;;;;;;4.00;1.00;;;;;;;28.74;40.91;99335.21;105700;1281;26699;-81
2022/05/20 10:22:01;;;;;;;3.50;1.00;;;;;;;28.78;41.18;99334.20;105589;1281;25352;-81
2022/05/20 10:24:45;;;;;;;2.60;0.90;;;;;;;28.72;40.55;99334.95;105522;1283;22567;-85
2022/05/20 10:27:44;;;;;;;3.70;0.80;;;;;;;28.62;40.98;99330.27;105370;1280;25288;-80
2022/05/20 10:33:31;;;;;;;2.20;0.80;;;;;;;28.63;40.08;99327.35;105130;1286;23920;-82
2022/05/20 10:36:03;;;;;;;2.40;0.90;;;;;;;28.49;40.21;99324.73;105178;1285;25560;-79
2022/05/20 10:38:40;;;;;;;2.80;0.80;;;;;;;28.53;40.92;99317.06;105105;1286;22572;-82
2022/05/20 10:41:39;;;;;;;5.50;0.90;;;;;;;28.86;40.77;99320.65;105138;1285;22532;-86
2022/05/20 10:50:42;;;;;;;2.90;0.90;;;;;;;28.71;40.08;99317.46;104900;1287;22753;-85
2022/05/20 10:53:11;;;;;;;3.90;1.00;;;;;;;28.63;40.39;99309.17;105391;1281;24067;-79
2022/05/20 10:56:13;;;;;;;4.30;1.10;;;;;;;28.60;39.94;99304.66;105554;1281;23945;-82
2022/05/20 10:59:35;;;;;;;3.30;1.10;;;;;;;28.46;40.18;99307.13;105640;1281;22808;-80
2022/05/20 11:02:29;;;;;;;3.70;0.90;;;;;;;28.64;40.44;99304.36;105072;1287;22863;-79
2022/05/20 11:05:26;;;;;;;2.80;1.00;;;;;;;28.77;40.10;99299.16;105005;1287;25355;-79
2022/05/20 11:08:10;;;;;;;4.10;1.20;;;;;;;28.86;40.25;99294.27;105260;1280;23062;-84
2022/05/20 11:10:44;;;;;;;4.60;1.30;;;;;;;29.09;40.12;99298.25;105663;1281;22546;-87
2022/05/20 11:13:23;;;;;;;3.00;1.10;;;;;;;29.15;39.88;99295.29;105628;1282;25331;-79
2022/05/20 11:16:34;;;;;;;3.10;1.10;;;;;;;29.23;39.75;99297.75;105358;1281;22732;-79
2022/05/20 11:19:25;;;;;;;8.90;1.30;;;;;;;29.33;39.91;99295.66;105345;1281;24235;-86
2022/05/20 11:22:21;;;;;;;3.40;1.20;;;;;;;29.38;39.62;99300.06;105463;1281;22787;-85
2022/05/20 11:25:09;;;;;;;4.00;1.10;;;;;;;29.33;39.63;99297.14;105677;1281;25747;-78
2022/05/20 11:27:52;;;;;;;3.20;1.00;;;;;;;29.23;39.85;99296.23;105602;1281;25466;-84
2022/05/20 11:30:36;;;;;;;3.70;1.10;;;;;;;29.35;39.90;99296.31;105645;1281;25621;-85
2022/05/20 11:33:18;;;;;;;3.60;1.10;;;;;;;29.49;39.99;99290.65;105630;1281;24709;-86
2022/05/20 11:36:19;;;;;;;3.00;1.20;;;;;;;29.51;40.23;99283.90;105581;1281;25549;-81
2022/05/20 11:39:30;;;;;;;3.10;1.10;;;;;;;29.73;39.91;99281.35;105886;1274;24115;-81
2022/05/20 11:42:05;;;;;;;4.10;1.20;;;;;;;29.51;39.15;99282.42;106080;1273;22547;-81
2022/05/20 11:45:11;;;;;;;4.40;1.30;;;;;;;29.27;39.68;99274.77;105879;1274;24107;-82
2022/05/20 11:47:56;;;;;;;3.60;1.20;;;;;;;29.31;39.78;99271.27;105988;1274;25295;-80
2022/05/20 11:51:11;;;;;;;4.90;1.40;;;;;;;29.26;39.48;99266.88;106219;1273;22626;-84
2022/05/20 11:53:55;;;;;;;3.90;1.30;;;;;;;29.02;39.64;99267.85;106065;1274;24341;-85
2022/05/20 11:57:14;;;;;;;3.30;1.30;;;;;;;28.84;39.73;99264.55;106223;1274;23956;-79
2022/05/20 12:00:15;;;;;;;4.00;1.20;;;;;;;28.65;39.91;99267.19;106086;1274;22616;-81
2022/05/20 12:03:09;;;;;;;4.00;1.40;;;;;;;28.48;39.85;99267.17;105895;1274;24233;-79
2022/05/20 12:05:40;;;;;;;4.90;1.40;;;;;;;28.34;39.99;99264.13;105987;1274;24402;-81
2022/05/20 12:08:29;;;;;;;7.40;1.30;;;;;;;28.27;40.07;99259.29;105953;1274;311272;-85
2022/05/20 12:10:56;;;;;;;4.30;1.20;;;;;;;28.24;40.07;99251.73;105961;1274;22848;-84
2022/05/20 12:14:07;;;;;;;4.40;1.50;;;;;;;28.17;39.82;99252.51;106127;1274;22624;-84
2022/05/20 12:17:04;;;;;;;3.20;1.40;;;;;;;28.14;40.48;99242.58;105399;1284;22910;-83
2022/05/20 12:26:15;;;;;;;6.50;1.60;;;;;;;28.20;40.40;99237.58;105319;1282;24056;-79
2022/05/20 12:29:22;;;;;;;6.00;1.70;;;;;;;28.29;40.72;99232.59;105518;1283;22694;-84
2022/05/20 12:31:53;;;;;;;4.00;1.40;;;;;;;28.60;40.55;99230.27;105595;1282;25577;-85
2022/05/20 12:34:42;;;;;;;4.80;1.30;;;;;;;28.67;40.56;99224.60;105388;1284;24250;-77
2022/05/20 12:37:43;;;;;;;5.60;1.70;;;;;;;28.83;40.58;99221.46;105604;1282;25375;-82
2022/05/20 12:40:27;;;;;;;4.70;1.60;;;;;;;28.95;40.49;99218.43;105521;1284;22637;-81
2022/05/20 12:43:50;;;;;;;5.60;1.60;;;;;;;28.97;40.71;99212.32;105512;1282;24216;-86
2022/05/20 12:46:48;;;;;;;5.90;1.90;;;;;;;28.73;40.09;99203.34;105050;1282;24260;-80
2022/05/20 12:49:15;;;;;;;5.00;1.90;;;;;;;28.45;40.46;99203.85;105502;1282;25261;-78
2022/05/20 12:51:46;;;;;;;4.00;1.50;;;;;;;28.16;40.51;99199.87;105424;1283;24277;-80
2022/05/20 12:54:16;;;;;;;5.50;1.80;;;;;;;27.95;40.46;99196.64;105742;1274;22540;-84
2022/05/20 12:56:53;;;;;;;6.50;1.60;;;;;;;27.80;40.56;99196.86;106041;1274;25314;-82
2022/05/20 12:59:22;;;;;;;6.50;1.70;;;;;;;27.77;40.72;99186.77;105963;1273;22625;-80